Nearby METAR Reports

 

EBAW - Antwerpen, Belgium
Distance from station: NW 22km
Updated: 2019-11-13 18:50
Light rain, Mostly cloudy
Light rain, Mostly cloudy
 Wind from S
Wind: S 11 km/h
Temperature: 7°C
Wind Chill: 5°C
Dew Point: 5°C
Humidity: 87%
Barometer: 1000 hPa
Summary: Light rain
Clouds: Mostly cloudy
Visibility: 10 km
Cloud details: Partly cloudy 732 m
Mostly cloudy 1280 m
2019/11/13 17:50 EBAW 131750Z 18006KT 9999 -RA SCT024TCU BKN042 07/05 Q1000 TEMPO 4500 SHRA
EBBR - Brussel, Belgium
Distance from station: SW 24km
Updated: 2019-11-13 18:50
Rain, Mostly cloudy
Rain, Mostly cloudy
 Wind from SW
Wind: SW 15 km/h
Temperature: 7°C
Wind Chill: 4°C
Dew Point: 5°C
Humidity: 87%
Barometer: 1001 hPa
Summary: Rain
Clouds: Mostly cloudy
Visibility: 4 km
Cloud details: Few Clouds 274 m
Mostly cloudy 396 m
2019/11/13 17:50 EBBR 131750Z 22008KT 200V280 4000 RA FEW009 BKN013 07/05 Q1001 BECMG 9999 NSW
 
EBDT - Schaffen, Belgium
Distance from station: ESE 26km
Updated: 2019-11-13 18:55
Overcast
Overcast
 Wind from S
Wind: S 13 km/h
Temperature: 7°C
Wind Chill: 5°C
Dew Point: 4°C
Humidity: 81%
Barometer: 1001 hPa
Clouds: Overcast
Visibility: 10 km
Cloud details: Partly cloudy 945 m
Mostly cloudy 1524 m
Overcast 3353 m
2019/11/13 17:55 EBDT 131755Z AUTO 18007KT 9999 SCT031/// BKN050/// OVC110/// 07/04 Q1001 BLU
EBBE - Beauvechain, Belgium
Distance from station: S 36km
Updated: 2019-11-13 18:55
Mostly cloudy
Mostly cloudy
 Wind from S
Wind: S 13 km/h
Temperature: 6°C
Wind Chill: 3°C
Dew Point: 4°C
Humidity: 87%
Barometer: 1001 hPa
Clouds: Mostly cloudy
Visibility: 10 km
Cloud details: Partly cloudy 2743 m
Mostly cloudy 3658 m
2019/11/13 17:55 EBBE 131755Z 18007KT 9999 SCT090 BKN120 06/04 Q1001 BLU BLU TEMPO WHT
 
EHWO - Woensdrecht Rnla, Netherlands
Distance from station: NNW 50km
Updated: 2019-11-13 19:19
Light rain, Mostly cloudy
Light rain, Mostly cloudy
 Wind from S
Wind: S 7 km/h
Temperature: 7°C
Wind Chill: 6°C
Dew Point: 5°C
Humidity: 87%
Barometer: 999 hPa
Summary: Light rain
Clouds: Mostly cloudy
Visibility: 10 km
Cloud details: Few Clouds 213 m
Partly cloudy 427 m
Few Clouds 457 m
Mostly cloudy 518 m
2019/11/13 18:19 EHWO 131819Z AUTO 19004KT 140V270 9999 -RA FEW007 SCT014 FEW015CB BKN017 07/05 Q0999 GRN
EBBL - Kleine-Brogel, Belgium
Distance from station: ENE 54km
Updated: 2019-11-13 18:55
Mostly cloudy
Mostly cloudy
 Wind from S
Wind: S 11 km/h
Temperature: 6°C
Wind Chill: 4°C
Dew Point: 5°C
Humidity: 93%
Barometer: 1001 hPa
Clouds: Mostly cloudy
Visibility: 10 km
Cloud details: Few Clouds 975 m
Partly cloudy 1829 m
Mostly cloudy 4267 m
2019/11/13 17:55 EBBL 131755Z 19006KT 9999 FEW032 SCT060 BKN140 06/05 Q1001 BLU BLU
 
EHGR - Gilze-Rijen Rnla, Netherlands
Distance from station: NNE 57km
Updated: 2019-11-13 18:55
Mostly cloudy
Mostly cloudy
 Wind from SSE
Wind: SSE 11 km/h
Temperature: 6°C
Wind Chill: 4°C
Dew Point: 6°C
Humidity: 100%
Barometer: 1000 hPa
Clouds: Mostly cloudy
Visibility: 10 km
Cloud details: Few Clouds 884 m
Mostly cloudy 975 m
2019/11/13 17:55 EHGR 131755Z AUTO 16006KT 9999 FEW029 BKN032 06/06 Q1000 BLU 17005KT 9999 FEW020 SCT035 TEMPO 5000 -SHRA FEW007 SCT015CB
EHEH - Eindhoven Rnlafb, Netherlands
Distance from station: NE 63km
Updated: 2019-11-13 18:55
Overcast
Overcast
 Wind from SSE
Wind: SSE 13 km/h
Temperature: 6°C
Wind Chill: 3°C
Dew Point: 5°C
Humidity: 93%
Barometer: 1001 hPa
Clouds: Overcast
Visibility: 10 km
Cloud details: Few Clouds 1829 m
Overcast 3353 m
2019/11/13 17:55 EHEH 131755Z AUTO 16007KT 9999 FEW060 OVC110 06/05 Q1001 BLU 18005KT 9999 SCT030 BKN050
 
EBCI - Charleroi, Belgium
Distance from station: SSW 70km
Updated: 2019-11-13 18:50
Mostly cloudy
Mostly cloudy
 Wind from S
Wind: S 11 km/h
Temperature: 6°C
Wind Chill: 4°C
Dew Point: 5°C
Humidity: 93%
Barometer: 1001 hPa
Clouds: Mostly cloudy
Visibility: 10 km
Cloud details: Partly cloudy 488 m
Mostly cloudy 1097 m
2019/11/13 17:50 EBCI 131750Z 18006KT 9999 SCT016 BKN036 06/05 Q1001 NOSIG
EBLG - Bierset, Belgium
Distance from station: SE 72km
Updated: 2019-11-13 18:50
Few Clouds
Few Clouds
 Wind from S
Wind: S 22 km/h
Temperature: 5°C
Wind Chill: 1°C
Dew Point: 3°C
Humidity: 87%
Barometer: 1001 hPa
Clouds: Few Clouds
Visibility: 10 km
Cloud details: Few Clouds 396 m
2019/11/13 17:50 EBLG 131750Z 19012KT 9999 FEW013 05/03 Q1001 NOSIG